createdAt,value
2018-03-04T00:00:26.843Z,102.80
2018-03-04T00:01:26.829Z,107.00
2018-03-04T00:02:26.824Z,101.70
2018-03-04T00:03:26.806Z,102.50
2018-03-04T00:04:26.795Z,104.60
2018-03-04T00:05:26.796Z,83.60
2018-03-04T00:06:26.779Z,91.70
2018-03-04T00:07:26.757Z,88.30
2018-03-04T00:08:26.767Z,96.20
2018-03-04T00:09:26.734Z,85.20
2018-03-04T00:10:26.727Z,87.90
2018-03-04T00:11:26.713Z,79.70
2018-03-04T00:12:26.699Z,77.80
2018-03-04T00:13:26.693Z,78.00
2018-03-04T00:14:26.678Z,84.90
2018-03-04T00:15:26.664Z,82.20
2018-03-04T00:16:26.655Z,83.00
2018-03-04T00:17:26.647Z,81.40
2018-03-04T00:18:26.633Z,86.50
2018-03-04T00:19:26.617Z,78.20
2018-03-04T00:20:26.611Z,80.50
2018-03-04T00:21:26.600Z,91.30
2018-03-04T00:22:26.581Z,75.90
2018-03-04T00:23:26.574Z,97.30
2018-03-04T00:24:26.565Z,94.50
2018-03-04T00:25:26.555Z,88.00
2018-03-04T00:26:26.538Z,92.80
2018-03-04T00:27:26.527Z,108.50
2018-03-04T00:28:26.513Z,120.50
2018-03-04T00:29:26.502Z,134.50
2018-03-04T00:30:26.490Z,139.10
2018-03-04T00:31:26.478Z,124.20
2018-03-04T00:32:26.467Z,110.10
2018-03-04T00:33:26.454Z,117.80
2018-03-04T00:34:26.445Z,116.90
2018-03-04T00:35:26.436Z,132.30
2018-03-04T00:36:26.423Z,111.90
2018-03-04T00:37:26.413Z,121.80
2018-03-04T00:38:26.400Z,128.20
2018-03-04T00:39:26.393Z,122.50
2018-03-04T00:40:26.378Z,140.50
2018-03-04T00:41:26.363Z,143.20
2018-03-04T00:42:26.350Z,143.20
2018-03-04T00:43:26.340Z,134.30
2018-03-04T00:44:26.326Z,136.40
2018-03-04T00:45:26.317Z,153.20
2018-03-04T00:46:26.305Z,144.20
2018-03-04T00:47:26.293Z,186.30
2018-03-04T00:48:26.293Z,173.40
2018-03-04T00:49:26.296Z,168.60
2018-03-04T00:50:26.278Z,179.50
2018-03-04T00:51:26.251Z,163.50
2018-03-04T00:52:26.231Z,183.70
2018-03-04T00:53:26.271Z,169.30
2018-03-04T00:54:26.200Z,178.50
2018-03-04T00:55:26.192Z,154.90
2018-03-04T00:56:26.188Z,186.20
2018-03-04T00:57:26.175Z,178.30
2018-03-04T00:58:26.165Z,180.90
2018-03-04T00:59:26.152Z,184.10
2018-03-04T01:00:26.138Z,186.50
2018-03-04T01:01:26.135Z,181.20
2018-03-04T01:02:26.114Z,156.60
2018-03-04T01:03:26.105Z,170.80
2018-03-04T01:04:26.098Z,162.10
2018-03-04T01:05:26.117Z,184.20
2018-03-04T01:06:26.117Z,186.40
2018-03-04T01:07:26.069Z,157.40
2018-03-04T01:08:26.040Z,165.20
2018-03-04T01:09:26.034Z,160.90
2018-03-04T01:10:26.018Z,165.40
2018-03-04T01:11:26.010Z,139.60
2018-03-04T01:12:26.030Z,169.10
2018-03-04T01:13:25.999Z,132.30
2018-03-04T01:14:25.991Z,130.20
2018-03-04T01:15:25.995Z,127.50
2018-03-04T01:16:25.976Z,127.10
2018-03-04T01:17:25.938Z,129.80
2018-03-04T01:18:25.925Z,146.40
2018-03-04T01:19:25.916Z,145.60
2018-03-04T01:20:25.906Z,141.30
2018-03-04T01:21:25.889Z,142.60
2018-03-04T01:22:25.913Z,153.60
2018-03-04T01:23:25.902Z,151.70
2018-03-04T01:24:25.857Z,142.50
2018-03-04T01:25:25.857Z,142.10
2018-03-04T01:26:25.834Z,146.70
2018-03-04T01:27:25.820Z,170.20
2018-03-04T01:28:25.800Z,195.90
2018-03-04T01:29:25.801Z,192.60
2018-03-04T01:30:25.813Z,181.70
2018-03-04T01:31:25.773Z,196.20
2018-03-04T01:32:25.822Z,196.30
2018-03-04T01:33:25.804Z,176.70
2018-03-04T02:05:52.293Z,1099.50
2018-03-04T02:06:52.259Z,1284.20
2018-03-04T02:07:52.240Z,1443.70
2018-03-04T02:08:52.224Z,1348.80
2018-03-04T02:09:52.208Z,1419.60
2018-03-04T02:10:52.190Z,1589.70
2018-03-04T02:11:52.175Z,1296.30
2018-03-04T02:12:52.158Z,1348.40
2018-03-04T02:13:52.142Z,1433.00
2018-03-04T02:14:52.125Z,1405.90
2018-03-04T02:15:52.112Z,1372.10
2018-03-04T02:16:52.099Z,1185.60
2018-03-04T02:17:52.082Z,1187.90
2018-03-04T02:18:52.074Z,1379.30
2018-03-04T02:19:52.055Z,1233.20
2018-03-04T02:20:52.047Z,1291.60
2018-03-04T02:21:52.028Z,1041.60
2018-03-04T02:22:52.014Z,1209.80
2018-03-04T02:23:52.012Z,1149.10
2018-03-04T02:24:51.991Z,987.70
2018-03-04T02:25:51.981Z,1057.40
2018-03-04T02:26:51.965Z,1021.30
2018-03-04T02:27:51.951Z,1000.40
2018-03-04T02:28:51.941Z,1073.40
2018-03-04T02:29:51.930Z,1010.60
2018-03-04T02:30:51.918Z,1065.10
2018-03-04T02:31:51.905Z,1160.90
2018-03-04T02:32:51.893Z,994.00
2018-03-04T02:33:51.881Z,703.40
2018-03-04T02:34:51.868Z,966.60
2018-03-04T02:35:51.864Z,1063.30
2018-03-04T02:36:51.851Z,919.90
2018-03-04T02:37:51.835Z,1057.40
2018-03-04T02:38:51.823Z,958.20
2018-03-04T02:39:51.809Z,1008.90
2018-03-04T02:40:51.804Z,1022.40
2018-03-04T02:41:51.787Z,814.40
2018-03-04T02:42:51.787Z,763.10
2018-03-04T02:43:51.810Z,775.40
2018-03-04T02:44:51.752Z,797.10
2018-03-04T02:45:51.744Z,780.30
2018-03-04T02:46:51.729Z,665.30
2018-03-04T02:47:51.718Z,618.30
2018-03-04T02:48:51.705Z,734.10
2018-03-04T02:49:51.695Z,680.40
2018-03-04T02:50:51.680Z,643.90
2018-03-04T02:51:51.673Z,785.20
2018-03-04T02:52:51.661Z,622.10
2018-03-04T02:53:51.649Z,762.20
2018-03-04T02:54:51.636Z,786.60
2018-03-04T02:55:51.626Z,728.10
2018-03-04T02:56:51.615Z,701.40
2018-03-04T02:57:51.598Z,704.90
2018-03-04T02:58:51.593Z,645.60
2018-03-04T02:59:51.576Z,491.40
2018-03-04T03:00:51.567Z,750.00
2018-03-04T03:01:51.557Z,707.90
2018-03-04T03:02:51.546Z,551.70
2018-03-04T03:03:51.532Z,619.00
2018-03-04T03:04:51.521Z,459.60
2018-03-04T03:05:51.514Z,732.00
2018-03-04T03:06:51.499Z,736.10
2018-03-04T03:07:51.488Z,633.60
2018-03-04T03:08:51.476Z,619.60
2018-03-04T03:09:51.465Z,620.80
2018-03-04T03:10:51.452Z,646.20
2018-03-04T03:11:51.442Z,571.60
2018-03-04T03:12:51.428Z,417.20
2018-03-04T03:13:51.420Z,712.60
2018-03-04T03:14:51.411Z,632.40
2018-03-04T03:15:51.395Z,635.10
2018-03-04T03:16:51.383Z,704.10
2018-03-04T03:17:51.370Z,657.70
2018-03-04T03:18:51.360Z,674.60
2018-03-04T03:19:51.350Z,754.90
2018-03-04T03:20:51.337Z,777.90
2018-03-04T03:21:51.325Z,731.00
2018-03-04T03:22:51.314Z,734.70
2018-03-04T03:23:51.299Z,620.70
2018-03-04T03:24:51.289Z,593.30
2018-03-04T03:25:51.282Z,480.40
2018-03-04T03:26:51.268Z,454.60
2018-03-04T03:27:51.255Z,507.10
2018-03-04T03:28:51.246Z,466.20
2018-03-04T03:29:51.233Z,559.00
2018-03-04T03:30:51.315Z,617.50
2018-03-04T03:31:51.206Z,391.40
2018-03-04T03:32:51.194Z,266.00
2018-03-04T03:33:51.183Z,392.90
2018-03-04T03:34:51.173Z,198.90
2018-03-04T03:35:51.167Z,352.60
2018-03-04T03:36:51.150Z,191.60
2018-03-04T03:37:51.136Z,205.50
2018-03-04T03:38:51.124Z,144.20
2018-03-04T03:39:51.118Z,201.80
2018-03-04T03:40:51.101Z,167.10
2018-03-04T03:41:51.090Z,203.40
2018-03-04T03:42:51.076Z,118.90
2018-03-04T03:43:51.064Z,166.50
2018-03-04T03:44:51.054Z,173.80
2018-03-04T03:45:51.040Z,143.40
2018-03-04T03:46:51.029Z,121.40
2018-03-04T03:47:51.016Z,122.40
2018-03-04T03:48:51.008Z,134.20
2018-03-04T03:49:50.988Z,128.00
2018-03-04T03:50:50.983Z,147.80
2018-03-04T03:51:50.970Z,157.00
2018-03-04T03:52:50.958Z,167.20
2018-03-04T03:53:50.949Z,176.60
2018-03-04T03:54:50.938Z,191.30
2018-03-04T03:55:50.924Z,179.60
2018-03-04T03:56:50.912Z,144.90
2018-03-04T03:57:50.900Z,138.60
2018-03-04T03:58:50.889Z,124.50
2018-03-04T03:59:50.875Z,134.50
2018-03-04T04:00:50.864Z,118.80
2018-03-04T04:01:50.854Z,107.30
2018-03-04T04:02:50.844Z,99.90
2018-03-04T04:03:50.828Z,121.90
2018-03-04T04:04:50.824Z,113.50
2018-03-04T04:05:50.808Z,105.90
2018-03-04T04:06:50.794Z,102.80
2018-03-04T04:07:50.887Z,112.10
2018-03-04T04:08:50.771Z,87.00
2018-03-04T04:09:50.758Z,96.20
2018-03-04T04:10:50.747Z,94.70
2018-03-04T04:11:50.732Z,103.50
2018-03-04T04:12:50.726Z,116.20
2018-03-04T04:13:50.713Z,124.70
2018-03-04T04:14:50.707Z,108.40
2018-03-04T04:15:50.688Z,115.10
2018-03-04T04:16:50.675Z,119.50
2018-03-04T04:17:50.666Z,124.20
2018-03-04T04:18:50.657Z,139.70
2018-03-04T04:19:50.642Z,165.40
2018-03-04T04:20:50.631Z,130.50
2018-03-04T04:21:50.615Z,128.70
2018-03-04T04:22:50.602Z,126.60
2018-03-04T04:23:50.594Z,123.90
2018-03-04T04:24:50.581Z,107.70
2018-03-04T04:25:50.568Z,102.10
2018-03-04T04:26:50.559Z,104.90
2018-03-04T04:27:50.543Z,114.50
2018-03-04T04:28:50.534Z,113.50
2018-03-04T04:29:50.523Z,115.80
2018-03-04T04:30:50.507Z,116.80
2018-03-04T04:31:50.503Z,133.70
2018-03-04T04:32:50.487Z,119.00
2018-03-04T04:33:50.475Z,136.40
2018-03-04T04:34:50.460Z,118.90
2018-03-04T04:35:50.449Z,137.90
2018-03-04T04:36:50.436Z,128.00
2018-03-04T04:37:50.424Z,149.20
2018-03-04T04:38:50.416Z,138.00
2018-03-04T04:39:50.401Z,143.90
2018-03-04T04:40:50.390Z,139.70
2018-03-04T04:41:50.372Z,148.10
2018-03-04T04:42:50.366Z,125.50
2018-03-04T04:43:50.357Z,133.60
2018-03-04T04:44:50.349Z,131.90
2018-03-04T04:45:50.329Z,150.10
2018-03-04T04:46:50.320Z,155.00
2018-03-04T04:47:50.307Z,169.60
2018-03-04T04:48:50.294Z,173.50
2018-03-04T04:49:50.280Z,210.10
2018-03-04T04:50:50.268Z,180.70
2018-03-04T04:51:50.255Z,164.00
2018-03-04T04:52:50.248Z,327.20
2018-03-04T04:53:50.235Z,467.10
2018-03-04T04:54:50.221Z,727.50
2018-03-04T04:55:50.209Z,478.00
2018-03-04T04:56:50.210Z,111.60
2018-03-04T04:57:50.187Z,123.30
2018-03-04T04:58:50.175Z,120.90
2018-03-04T04:59:50.160Z,117.90
2018-03-04T05:00:50.152Z,140.10
2018-03-04T05:01:50.140Z,122.30
2018-03-04T05:02:50.125Z,133.90
2018-03-04T05:03:50.113Z,126.30
2018-03-04T05:04:50.105Z,109.20
2018-03-04T05:05:50.090Z,103.40
2018-03-04T05:06:50.076Z,124.50
2018-03-04T05:07:50.065Z,140.00
2018-03-04T05:08:50.055Z,131.60
2018-03-04T05:09:50.046Z,125.30
2018-03-04T05:10:50.028Z,121.40
2018-03-04T05:11:50.015Z,120.50
2018-03-04T05:12:50.004Z,116.90
2018-03-04T05:13:50.004Z,111.60
2018-03-04T05:14:49.981Z,105.00
2018-03-04T05:15:49.970Z,124.20
2018-03-04T05:16:49.954Z,134.90
2018-03-04T05:17:49.944Z,118.30
2018-03-04T05:18:49.940Z,119.80
2018-03-04T05:19:49.920Z,128.20
2018-03-04T05:20:49.908Z,122.20
2018-03-04T05:21:49.896Z,116.80
2018-03-04T05:22:49.882Z,113.70
2018-03-04T05:23:49.872Z,129.00
2018-03-04T05:24:49.857Z,120.70
2018-03-04T05:25:49.853Z,117.30
2018-03-04T05:26:49.835Z,127.90
2018-03-04T05:27:49.833Z,116.10
2018-03-04T05:28:49.815Z,142.80
2018-03-04T05:29:49.801Z,142.60
2018-03-04T05:30:49.791Z,145.40
2018-03-04T05:31:49.776Z,137.40
2018-03-04T05:32:49.764Z,168.20
2018-03-04T05:33:49.750Z,141.70
2018-03-04T05:34:49.737Z,152.30
2018-03-04T05:35:49.728Z,131.00
2018-03-04T05:36:49.715Z,121.60
2018-03-04T05:37:49.701Z,116.90
2018-03-04T05:38:49.688Z,118.30
2018-03-04T05:39:49.676Z,104.60
2018-03-04T05:40:49.668Z,116.20
2018-03-04T05:41:49.656Z,113.60
2018-03-04T05:42:49.644Z,102.10
2018-03-04T05:43:49.631Z,118.30
2018-03-04T05:44:49.618Z,112.50
2018-03-04T05:45:49.605Z,109.20
2018-03-04T05:46:49.595Z,123.30
2018-03-04T05:47:49.581Z,104.60
2018-03-04T05:48:49.586Z,109.00
2018-03-04T05:49:49.557Z,112.80
2018-03-04T05:50:49.547Z,125.90
2018-03-04T05:51:49.530Z,127.30
2018-03-04T05:52:49.521Z,110.70
2018-03-04T05:53:49.508Z,126.30
2018-03-04T05:54:49.498Z,124.10
2018-03-04T05:55:49.483Z,124.60
2018-03-04T05:56:49.472Z,117.10
2018-03-04T05:57:49.462Z,122.90
2018-03-04T05:58:49.447Z,127.50
2018-03-04T05:59:49.434Z,109.10
2018-03-04T06:00:49.423Z,102.70
2018-03-04T06:01:49.413Z,108.50
2018-03-04T06:02:49.397Z,107.00
2018-03-04T06:03:49.392Z,120.40
2018-03-04T06:04:49.374Z,120.70
2018-03-04T06:05:49.372Z,108.80
2018-03-04T06:06:49.348Z,133.80
2018-03-04T06:07:49.336Z,125.20
2018-03-04T06:08:49.338Z,141.90
2018-03-04T06:09:49.316Z,130.90
2018-03-04T06:10:49.292Z,134.90
2018-03-04T06:11:49.292Z,138.10
2018-03-04T06:12:49.281Z,150.40
2018-03-04T06:13:49.270Z,157.40
2018-03-04T06:14:49.253Z,147.50
2018-03-04T06:15:49.244Z,140.40
2018-03-04T06:16:49.230Z,131.80
2018-03-04T06:17:49.219Z,126.60
2018-03-04T06:18:49.204Z,114.50
2018-03-04T06:19:49.194Z,103.40
2018-03-04T06:20:49.191Z,115.20
2018-03-04T06:21:49.173Z,86.80
2018-03-04T06:22:49.158Z,99.30
2018-03-04T06:23:49.149Z,91.20
2018-03-04T06:24:49.136Z,83.40
2018-03-04T06:25:49.137Z,79.50
2018-03-04T06:26:49.112Z,63.00
2018-03-04T06:27:49.102Z,54.00
2018-03-04T06:28:49.091Z,53.20
2018-03-04T06:29:49.086Z,43.30
2018-03-04T06:30:49.071Z,42.10
2018-03-04T06:31:49.059Z,44.60
2018-03-04T06:32:49.048Z,42.30
2018-03-04T06:33:49.039Z,41.00
2018-03-04T06:34:49.026Z,40.90
2018-03-04T06:35:49.019Z,41.90
2018-03-04T06:36:49.008Z,40.30
2018-03-04T06:37:48.999Z,40.80
2018-03-04T06:38:48.986Z,41.00
2018-03-04T06:39:48.973Z,43.60
2018-03-04T06:40:48.973Z,46.10
2018-03-04T06:41:48.958Z,66.30
2018-03-04T06:42:48.945Z,43.30
2018-03-04T06:43:48.937Z,39.00
2018-03-04T06:44:48.928Z,44.60
2018-03-04T06:45:48.918Z,40.40
2018-03-04T06:46:48.907Z,42.40
2018-03-04T06:47:48.900Z,40.50
2018-03-04T06:48:48.899Z,40.20
2018-03-04T06:49:48.881Z,54.60
2018-03-04T06:50:48.872Z,40.50
2018-03-04T06:51:48.864Z,37.60
2018-03-04T06:52:48.859Z,31.20
2018-03-04T06:53:48.848Z,31.70
2018-03-04T06:54:48.842Z,28.40
2018-03-04T06:55:48.827Z,27.70
2018-03-04T06:56:48.827Z,25.90
2018-03-04T06:57:48.816Z,25.50
2018-03-04T06:58:48.807Z,24.80
2018-03-04T06:59:48.800Z,23.10
2018-03-04T07:00:48.796Z,24.40
2018-03-04T07:01:48.773Z,24.00
2018-03-04T07:02:48.777Z,21.60
2018-03-04T07:03:48.772Z,23.00
2018-03-04T07:04:48.768Z,23.30
2018-03-04T07:05:48.761Z,22.70
2018-03-04T07:06:48.753Z,21.20
2018-03-04T07:07:48.742Z,21.80
2018-03-04T07:08:48.738Z,23.10
2018-03-04T07:09:48.731Z,23.90
2018-03-04T07:10:48.725Z,25.00
2018-03-04T07:11:48.719Z,23.00
2018-03-04T07:12:48.712Z,23.20
2018-03-04T07:13:48.711Z,23.50
2018-03-04T07:14:48.706Z,22.30
2018-03-04T07:15:48.702Z,23.20
2018-03-04T07:16:48.692Z,22.50
2018-03-04T07:17:48.686Z,21.70
2018-03-04T07:18:48.680Z,21.60
2018-03-04T07:19:48.664Z,24.70
2018-03-04T07:20:48.662Z,25.70
2018-03-04T07:21:48.681Z,28.80
2018-03-04T07:22:48.661Z,30.70
2018-03-04T07:23:48.662Z,42.40
2018-03-04T07:24:48.658Z,43.10
2018-03-04T07:25:48.653Z,41.70
2018-03-04T07:26:48.648Z,50.70
2018-03-04T07:27:48.643Z,48.40
2018-03-04T07:28:48.639Z,46.30
2018-03-04T07:29:48.638Z,43.00
2018-03-04T07:30:48.632Z,42.50
2018-03-04T07:31:48.628Z,39.20
2018-03-04T07:32:48.627Z,37.30
2018-03-04T07:33:48.642Z,37.50
2018-03-04T07:34:48.624Z,34.80
2018-03-04T07:35:48.618Z,31.90
2018-03-04T07:36:48.617Z,25.40
2018-03-04T07:37:48.614Z,25.30
2018-03-04T07:38:48.613Z,20.50
2018-03-04T07:39:48.615Z,19.80
2018-03-04T07:40:48.612Z,18.90
2018-03-04T07:41:48.608Z,16.60
2018-03-04T07:42:48.606Z,16.80
2018-03-04T07:43:48.606Z,16.70
2018-03-04T07:44:48.603Z,17.90
2018-03-04T07:45:48.608Z,18.40
2018-03-04T07:46:48.695Z,16.90
2018-03-04T07:47:48.602Z,18.00
2018-03-04T07:48:48.601Z,17.00
2018-03-04T07:49:48.604Z,15.90
2018-03-04T07:50:48.602Z,14.80
2018-03-04T07:51:48.601Z,14.40
2018-03-04T07:52:48.606Z,13.70
2018-03-04T07:53:48.603Z,11.80
2018-03-04T07:54:48.603Z,12.40
2018-03-04T07:55:48.608Z,12.70
2018-03-04T07:56:48.609Z,13.20
2018-03-04T07:57:48.600Z,12.10
2018-03-04T07:58:48.606Z,11.00
2018-03-04T07:59:48.612Z,12.20
2018-03-04T08:00:48.615Z,12.00
2018-03-04T08:01:48.641Z,12.20
2018-03-04T08:02:48.618Z,11.60
2018-03-04T08:03:48.624Z,11.00
2018-03-04T08:04:48.721Z,11.40
2018-03-04T08:05:48.650Z,10.70
2018-03-04T08:06:48.644Z,10.50
2018-03-04T08:07:48.640Z,10.90
2018-03-04T08:08:48.643Z,10.30
2018-03-04T08:09:48.686Z,10.40
2018-03-04T08:10:48.671Z,10.70
2018-03-04T08:11:48.681Z,10.10
2018-03-04T08:12:48.735Z,10.90
2018-03-04T08:13:49.256Z,10.30
2018-03-04T08:14:48.766Z,9.80
2018-03-04T08:15:49.287Z,10.40
2018-03-04T08:16:49.056Z,9.70
2018-03-04T08:17:48.755Z,10.30
2018-03-04T08:18:48.773Z,9.90
2018-03-04T08:19:48.717Z,10.00
2018-03-04T08:20:48.729Z,9.70
2018-03-04T08:21:48.733Z,9.70
2018-03-04T08:22:48.746Z,9.60
2018-03-04T08:23:48.801Z,9.40
2018-03-04T08:24:48.753Z,10.30
2018-03-04T08:25:48.758Z,9.60
2018-03-04T08:26:48.766Z,9.60
2018-03-04T08:27:48.773Z,9.50
2018-03-04T08:28:48.779Z,10.00
2018-03-04T08:29:48.784Z,9.00
2018-03-04T08:30:48.788Z,9.80
2018-03-04T08:31:48.792Z,9.30
2018-03-04T08:32:48.796Z,10.00
2018-03-04T08:33:48.802Z,9.90
2018-03-04T08:34:48.804Z,9.40
2018-03-04T08:35:48.806Z,9.10
2018-03-04T08:36:48.805Z,9.70
2018-03-04T08:37:48.811Z,10.00
2018-03-04T08:38:48.807Z,9.90
2018-03-04T08:39:48.811Z,9.60
2018-03-04T08:40:48.810Z,10.40
2018-03-04T08:41:48.810Z,10.20
2018-03-04T08:42:48.813Z,9.20
2018-03-04T08:43:48.815Z,8.80
2018-03-04T08:44:48.817Z,9.70
2018-03-04T08:45:48.817Z,8.80
2018-03-04T08:46:48.824Z,9.00
2018-03-04T08:47:48.825Z,9.00
2018-03-04T08:48:48.830Z,8.60
2018-03-04T08:49:48.836Z,8.80
2018-03-04T08:50:48.856Z,8.90
2018-03-04T08:51:48.843Z,8.80
2018-03-04T08:52:48.849Z,8.90
2018-03-04T08:53:48.853Z,8.90
2018-03-04T08:54:48.863Z,7.50
2018-03-04T08:55:48.872Z,8.00
2018-03-04T08:56:48.875Z,8.00
2018-03-04T08:57:48.877Z,8.10
2018-03-04T08:58:48.894Z,7.70
2018-03-04T08:59:48.889Z,7.60
2018-03-04T09:00:48.895Z,7.90
2018-03-04T09:01:48.900Z,7.20
2018-03-04T09:02:48.906Z,8.00
2018-03-04T09:03:48.974Z,7.90
2018-03-04T09:04:48.923Z,7.50
2018-03-04T09:05:48.931Z,7.90
2018-03-04T09:06:48.933Z,7.30
2018-03-04T09:07:48.938Z,7.40
2018-03-04T09:08:48.945Z,7.60
2018-03-04T09:09:48.948Z,7.50
2018-03-04T09:10:48.955Z,7.90
2018-03-04T09:11:48.960Z,8.10
2018-03-04T09:12:48.964Z,7.20
2018-03-04T09:13:48.973Z,7.80
2018-03-04T09:14:48.980Z,8.50
2018-03-04T09:15:48.979Z,7.70
2018-03-04T09:16:48.982Z,7.20
2018-03-04T09:17:48.985Z,8.10
2018-03-04T09:18:48.992Z,7.60
2018-03-04T09:19:49.004Z,7.80
2018-03-04T09:20:49.003Z,8.30
2018-03-04T09:21:49.007Z,7.60
2018-03-04T09:22:49.008Z,7.80
2018-03-04T09:23:49.014Z,7.70
2018-03-04T09:24:49.017Z,7.20
2018-03-04T09:25:49.024Z,7.00
2018-03-04T09:26:49.029Z,7.70
2018-03-04T09:27:49.040Z,7.40
2018-03-04T09:28:49.054Z,7.40
2018-03-04T09:29:49.051Z,7.90
2018-03-04T09:30:49.047Z,8.00
2018-03-04T09:31:49.060Z,7.80
2018-03-04T09:32:49.067Z,7.60
2018-03-04T09:33:49.076Z,8.00
2018-03-04T09:34:49.089Z,7.40
2018-03-04T09:35:49.094Z,8.10
2018-03-04T09:36:49.104Z,8.00
2018-03-04T09:37:49.112Z,6.80
2018-03-04T09:38:49.790Z,6.40
2018-03-04T09:39:49.387Z,6.30
2018-03-04T09:40:49.396Z,6.40
2018-03-04T09:41:49.553Z,5.70
2018-03-04T09:42:49.585Z,6.00
2018-03-04T09:43:49.522Z,7.70
2018-03-04T09:44:49.495Z,6.20
2018-03-04T09:45:49.502Z,5.10
2018-03-04T09:46:49.500Z,5.50
2018-03-04T09:47:49.413Z,5.10
2018-03-04T09:48:49.617Z,5.70
2018-03-04T09:49:49.601Z,5.70
2018-03-04T09:50:49.423Z,5.50
2018-03-04T09:51:49.588Z,6.40
2018-03-04T09:52:49.709Z,5.40
2018-03-04T09:53:50.110Z,5.20
2018-03-04T09:54:49.298Z,5.20
2018-03-04T09:55:49.310Z,5.40
2018-03-04T09:56:49.344Z,6.20
2018-03-04T09:57:49.333Z,5.50
2018-03-04T09:58:49.350Z,5.10
2018-03-04T09:59:49.357Z,4.80
2018-03-04T10:00:49.393Z,5.30
2018-03-04T10:01:49.380Z,5.20
2018-03-04T10:02:49.406Z,4.90
2018-03-04T10:03:49.436Z,5.00
2018-03-04T10:04:49.419Z,5.30
2018-03-04T10:05:49.431Z,4.70
2018-03-04T10:06:49.440Z,5.30
2018-03-04T10:07:49.456Z,5.10
2018-03-04T10:08:49.472Z,5.10
2018-03-04T10:09:49.477Z,5.40
2018-03-04T10:10:49.489Z,5.70
2018-03-04T10:11:49.505Z,5.80
2018-03-04T10:12:49.514Z,5.50
2018-03-04T10:13:49.528Z,5.20
2018-03-04T10:14:49.537Z,5.30
2018-03-04T10:15:49.553Z,5.50
2018-03-04T10:16:49.560Z,4.50
2018-03-04T10:17:49.578Z,5.00
2018-03-04T10:18:49.586Z,4.70
2018-03-04T10:19:49.607Z,4.70
2018-03-04T10:20:49.617Z,4.70
2018-03-04T10:21:49.624Z,5.10
2018-03-04T10:22:49.641Z,5.10
2018-03-04T10:23:49.651Z,4.90
2018-03-04T10:24:49.662Z,5.10
2018-03-04T10:25:49.678Z,4.30
2018-03-04T10:26:49.692Z,4.10
2018-03-04T10:27:49.703Z,4.00
2018-03-04T10:28:49.726Z,4.20
2018-03-04T10:29:49.730Z,4.10
2018-03-04T10:30:49.741Z,4.40
2018-03-04T10:31:49.756Z,4.70
2018-03-04T10:32:49.774Z,3.90
2018-03-04T10:33:49.787Z,3.80
2018-03-04T10:34:49.797Z,4.80
2018-03-04T10:35:49.810Z,4.90
2018-03-04T10:36:49.823Z,4.20
2018-03-04T10:37:49.835Z,4.30
2018-03-04T10:38:49.850Z,4.20
2018-03-04T10:39:49.862Z,4.00
2018-03-04T10:40:49.874Z,4.40
2018-03-04T10:41:49.889Z,4.20
2018-03-04T10:42:49.899Z,4.20
2018-03-04T10:43:49.911Z,4.10
2018-03-04T10:44:49.928Z,3.80
2018-03-04T10:45:49.942Z,4.00
2018-03-04T10:46:49.949Z,3.80
2018-03-04T10:47:49.964Z,4.10
2018-03-04T10:48:49.976Z,4.00
2018-03-04T10:49:49.991Z,6.10
2018-03-04T10:50:50.002Z,5.90
2018-03-04T10:51:50.010Z,4.40
2018-03-04T10:52:50.022Z,4.30
2018-03-04T10:53:50.044Z,4.40
2018-03-04T10:54:50.058Z,4.30
2018-03-04T10:55:50.066Z,4.30
2018-03-04T10:56:50.079Z,4.60
2018-03-04T10:57:50.092Z,5.10
2018-03-04T10:58:50.105Z,4.20
2018-03-04T10:59:50.117Z,3.60
2018-03-04T11:00:50.133Z,3.70
2018-03-04T11:01:50.140Z,4.00
2018-03-04T11:02:50.156Z,4.10
2018-03-04T11:03:50.171Z,4.00
2018-03-04T11:04:50.180Z,4.10
2018-03-04T11:05:50.198Z,3.80
2018-03-04T11:06:50.207Z,3.80
2018-03-04T11:07:50.223Z,3.70
2018-03-04T11:08:50.229Z,4.10
2018-03-04T11:09:50.260Z,3.60
2018-03-04T11:10:50.261Z,3.60
2018-03-04T11:11:50.277Z,3.40
2018-03-04T11:12:50.288Z,3.30
2018-03-04T11:13:50.299Z,4.40
2018-03-04T11:14:50.314Z,3.30
2018-03-04T11:15:50.326Z,3.50
2018-03-04T11:16:50.340Z,3.50
2018-03-04T11:17:50.349Z,3.40
2018-03-04T11:18:50.366Z,3.80
2018-03-04T11:19:50.376Z,3.70
2018-03-04T11:20:50.402Z,4.80
2018-03-04T11:21:50.407Z,4.10
2018-03-04T11:22:50.414Z,3.40
2018-03-04T11:23:50.428Z,3.80
2018-03-04T11:24:50.444Z,3.70
2018-03-04T11:25:50.452Z,3.50
2018-03-04T11:26:50.471Z,3.30
2018-03-04T11:27:50.480Z,3.40
2018-03-04T11:28:50.544Z,3.30
2018-03-04T11:29:50.505Z,3.30
2018-03-04T11:30:50.527Z,3.30
2018-03-04T11:31:50.534Z,3.40
2018-03-04T11:32:50.543Z,3.90
2018-03-04T11:33:50.561Z,3.50
2018-03-04T11:34:50.566Z,3.30
2018-03-04T11:35:50.580Z,2.90
2018-03-04T11:36:50.601Z,3.30
2018-03-04T11:37:50.606Z,3.70
2018-03-04T11:38:50.617Z,2.80
2018-03-04T11:39:50.636Z,3.30
2018-03-04T11:40:50.641Z,3.20
2018-03-04T11:41:50.658Z,3.30
2018-03-04T11:42:50.665Z,3.30
2018-03-04T11:43:50.674Z,3.90
2018-03-04T11:44:50.685Z,4.10
2018-03-04T11:45:50.701Z,3.60
2018-03-04T11:46:50.730Z,3.20
2018-03-04T11:47:50.726Z,3.60
2018-03-04T11:48:50.735Z,3.00
2018-03-04T11:49:50.747Z,3.30
2018-03-04T11:50:50.753Z,2.80
2018-03-04T11:51:50.765Z,3.50
2018-03-04T11:52:50.780Z,3.20
2018-03-04T11:53:50.787Z,3.30
2018-03-04T11:54:50.802Z,3.20
2018-03-04T11:55:50.845Z,4.20
2018-03-04T11:56:50.825Z,3.80
2018-03-04T11:57:50.834Z,3.30
2018-03-04T11:58:50.846Z,3.80
2018-03-04T11:59:50.852Z,3.40
2018-03-04T12:00:50.867Z,3.70
2018-03-04T12:01:50.876Z,3.70
2018-03-04T12:02:50.889Z,3.70
2018-03-04T12:03:50.910Z,4.10
2018-03-04T12:04:50.912Z,4.20
2018-03-04T12:05:50.918Z,3.80
2018-03-04T12:06:50.969Z,4.00
2018-03-04T12:07:50.944Z,4.10
2018-03-04T12:08:50.953Z,3.70
2018-03-04T12:09:50.964Z,3.90
2018-03-04T12:10:50.976Z,3.90
2018-03-04T12:11:50.985Z,4.20
2018-03-04T12:12:50.995Z,4.00
2018-03-04T12:13:51.004Z,4.10
2018-03-04T12:14:51.014Z,3.90
2018-03-04T12:15:51.026Z,4.00
2018-03-04T12:16:51.040Z,4.20
2018-03-04T12:17:51.051Z,4.40
2018-03-04T12:18:51.052Z,4.50
2018-03-04T12:19:51.067Z,5.00
2018-03-04T12:20:51.076Z,4.80
2018-03-04T12:21:51.085Z,4.20
2018-03-04T12:22:51.096Z,4.90
2018-03-04T12:23:51.104Z,4.70
2018-03-04T12:24:51.121Z,4.60
2018-03-04T12:25:51.131Z,4.80
2018-03-04T12:26:51.134Z,6.00
2018-03-04T12:27:51.147Z,6.60
2018-03-04T12:28:51.158Z,5.30
2018-03-04T12:29:51.212Z,6.30
2018-03-04T12:30:51.200Z,6.00
2018-03-04T12:31:51.181Z,6.30
2018-03-04T12:32:51.195Z,6.10
2018-03-04T12:33:51.204Z,5.80
2018-03-04T12:34:51.211Z,6.30
2018-03-04T12:35:51.220Z,7.00
2018-03-04T12:36:51.225Z,6.70
2018-03-04T12:37:51.240Z,6.70
2018-03-04T12:38:51.246Z,6.60
2018-03-04T12:39:51.255Z,6.30
2018-03-04T12:40:51.265Z,6.40
2018-03-04T12:41:51.265Z,6.90
2018-03-04T12:42:51.276Z,6.60
2018-03-04T12:43:51.282Z,6.30
2018-03-04T12:44:51.289Z,6.80
2018-03-04T12:45:51.292Z,7.10
2018-03-04T12:46:51.294Z,7.20
2018-03-04T12:47:51.299Z,6.90
2018-03-04T12:48:51.303Z,6.90
2018-03-04T12:49:51.310Z,6.10
2018-03-04T12:50:51.308Z,6.20
2018-03-04T12:51:51.308Z,5.90
2018-03-04T12:52:51.312Z,6.30
2018-03-04T12:53:51.317Z,6.20
2018-03-04T12:54:51.312Z,6.30
2018-03-04T12:55:51.315Z,5.60
2018-03-04T12:56:51.314Z,5.90
2018-03-04T12:57:51.312Z,6.30
2018-03-04T12:58:51.313Z,5.60
2018-03-04T12:59:51.317Z,6.20
2018-03-04T13:00:51.313Z,5.60
2018-03-04T13:01:51.314Z,6.40
2018-03-04T13:02:51.315Z,6.40
2018-03-04T13:03:51.326Z,6.30
2018-03-04T13:04:51.315Z,6.60
2018-03-04T13:05:51.314Z,7.50
2018-03-04T13:06:51.352Z,7.40
2018-03-04T13:07:51.311Z,8.90
2018-03-04T13:08:51.314Z,7.50
2018-03-04T13:09:51.313Z,9.00
2018-03-04T13:10:51.312Z,7.70
2018-03-04T13:11:51.307Z,7.90
2018-03-04T13:12:51.308Z,8.00
2018-03-04T13:13:51.309Z,7.70
2018-03-04T13:14:51.304Z,9.20
2018-03-04T13:15:51.305Z,8.10
2018-03-04T13:16:51.300Z,7.80
2018-03-04T13:17:51.302Z,8.60
2018-03-04T13:18:51.298Z,8.20
2018-03-04T13:19:51.294Z,8.80
2018-03-04T13:20:51.295Z,9.10
2018-03-04T13:21:51.292Z,8.30